sensor_id;sensor_type;location;lat;lon;timestamp;P1;durP1;ratioP1;P2;durP2;ratioP2
1887;SDS011;944;51.574;6.980;2024-03-06T08:43:37;128.73;;;53.53;;
1887;SDS011;944;51.574;6.980;2024-03-06T09:55:36;161.07;;;60.20;;
1887;SDS011;944;51.574;6.980;2024-03-06T10:50:45;202.47;;;70.30;;
1887;SDS011;944;51.574;6.980;2024-03-06T12:09:51;108.17;;;48.90;;
1887;SDS011;944;51.574;6.980;2024-03-06T12:12:25;96.67;;;45.17;;
1887;SDS011;944;51.574;6.980;2024-03-06T12:15:43;80.53;;;41.23;;
1887;SDS011;944;51.574;6.980;2024-03-06T12:25:16;95.80;;;45.70;;
1887;SDS011;944;51.574;6.980;2024-03-06T12:28:05;91.50;;;46.40;;
1887;SDS011;944;51.574;6.980;2024-03-06T12:30:42;77.97;;;39.30;;
1887;SDS011;944;51.574;6.980;2024-03-06T12:40:01;65.47;;;35.53;;
1887;SDS011;944;51.574;6.980;2024-03-06T12:42:38;69.60;;;35.37;;
1887;SDS011;944;51.574;6.980;2024-03-06T12:45:14;64.63;;;34.60;;
1887;SDS011;944;51.574;6.980;2024-03-06T12:48:01;67.50;;;35.30;;
1887;SDS011;944;51.574;6.980;2024-03-06T12:50:43;64.17;;;37.07;;
1887;SDS011;944;51.574;6.980;2024-03-06T12:53:48;62.77;;;33.17;;
1887;SDS011;944;51.574;6.980;2024-03-06T13:01:44;62.43;;;34.00;;
1887;SDS011;944;51.574;6.980;2024-03-06T13:25:47;56.23;;;32.77;;
1887;SDS011;944;51.574;6.980;2024-03-06T13:33:36;59.30;;;34.17;;
1887;SDS011;944;51.574;6.980;2024-03-06T13:36:06;52.20;;;32.83;;
1887;SDS011;944;51.574;6.980;2024-03-06T13:38:36;50.17;;;31.90;;
1887;SDS011;944;51.574;6.980;2024-03-06T13:41:10;52.60;;;32.47;;
1887;SDS011;944;51.574;6.980;2024-03-06T13:43:41;59.73;;;37.70;;
1887;SDS011;944;51.574;6.980;2024-03-06T13:46:18;57.63;;;36.83;;
1887;SDS011;944;51.574;6.980;2024-03-06T13:48:53;67.10;;;38.77;;
1887;SDS011;944;51.574;6.980;2024-03-06T13:51:25;63.13;;;40.97;;
1887;SDS011;944;51.574;6.980;2024-03-06T13:53:52;67.03;;;43.00;;
1887;SDS011;944;51.574;6.980;2024-03-06T13:56:23;66.40;;;37.40;;
1887;SDS011;944;51.574;6.980;2024-03-06T13:59:33;63.07;;;40.30;;
1887;SDS011;944;51.574;6.980;2024-03-06T14:02:26;62.70;;;37.60;;
1887;SDS011;944;51.574;6.980;2024-03-06T14:09:29;64.20;;;38.83;;
1887;SDS011;944;51.574;6.980;2024-03-06T14:15:39;63.83;;;39.20;;
1887;SDS011;944;51.574;6.980;2024-03-06T14:18:09;56.87;;;37.40;;
1887;SDS011;944;51.574;6.980;2024-03-06T14:20:38;71.30;;;42.17;;
1887;SDS011;944;51.574;6.980;2024-03-06T14:23:08;54.73;;;36.73;;
1887;SDS011;944;51.574;6.980;2024-03-06T14:29:49;46.83;;;31.83;;
1887;SDS011;944;51.574;6.980;2024-03-06T14:32:23;51.87;;;30.73;;
1887;SDS011;944;51.574;6.980;2024-03-06T14:35:14;48.57;;;33.67;;
1887;SDS011;944;51.574;6.980;2024-03-06T14:37:43;54.37;;;33.73;;
1887;SDS011;944;51.574;6.980;2024-03-06T14:43:51;51.63;;;34.90;;
1887;SDS011;944;51.574;6.980;2024-03-06T14:53:41;53.23;;;33.57;;
1887;SDS011;944;51.574;6.980;2024-03-06T15:00:08;46.50;;;31.77;;
1887;SDS011;944;51.574;6.980;2024-03-06T15:02:56;42.27;;;29.50;;
1887;SDS011;944;51.574;6.980;2024-03-06T15:10:21;37.97;;;25.30;;
1887;SDS011;944;51.574;6.980;2024-03-06T15:13:07;37.47;;;25.33;;
1887;SDS011;944;51.574;6.980;2024-03-06T15:15:49;40.37;;;23.93;;
1887;SDS011;944;51.574;6.980;2024-03-06T15:18:32;34.00;;;22.43;;
1887;SDS011;944;51.574;6.980;2024-03-06T15:21:22;35.73;;;24.03;;
1887;SDS011;944;51.574;6.980;2024-03-06T15:23:49;34.00;;;22.20;;
1887;SDS011;944;51.574;6.980;2024-03-06T15:26:19;36.07;;;22.20;;
1887;SDS011;944;51.574;6.980;2024-03-06T15:28:48;29.73;;;20.43;;
1887;SDS011;944;51.574;6.980;2024-03-06T15:31:15;25.57;;;18.00;;
1887;SDS011;944;51.574;6.980;2024-03-06T15:33:43;26.57;;;17.40;;
1887;SDS011;944;51.574;6.980;2024-03-06T15:36:12;38.97;;;18.37;;
1887;SDS011;944;51.574;6.980;2024-03-06T15:38:45;23.67;;;15.47;;
1887;SDS011;944;51.574;6.980;2024-03-06T15:41:21;21.13;;;14.90;;
1887;SDS011;944;51.574;6.980;2024-03-06T15:43:51;33.73;;;22.10;;
1887;SDS011;944;51.574;6.980;2024-03-06T15:55:15;22.00;;;14.30;;
1887;SDS011;944;51.574;6.980;2024-03-06T15:57:47;21.07;;;13.07;;
1887;SDS011;944;51.574;6.980;2024-03-06T16:00:18;20.40;;;13.30;;
1887;SDS011;944;51.574;6.980;2024-03-06T16:02:59;25.43;;;17.00;;
1887;SDS011;944;51.574;6.980;2024-03-06T16:08:32;33.73;;;21.13;;
1887;SDS011;944;51.574;6.980;2024-03-06T16:10:58;33.93;;;21.83;;
1887;SDS011;944;51.574;6.980;2024-03-06T16:13:28;36.93;;;22.83;;
1887;SDS011;944;51.574;6.980;2024-03-06T16:15:55;36.40;;;22.67;;
1887;SDS011;944;51.574;6.980;2024-03-06T16:18:22;45.63;;;25.03;;
1887;SDS011;944;51.574;6.980;2024-03-06T16:20:52;40.50;;;25.00;;
1887;SDS011;944;51.574;6.980;2024-03-06T16:23:19;39.50;;;24.90;;
1887;SDS011;944;51.574;6.980;2024-03-06T16:25:50;39.57;;;25.30;;
1887;SDS011;944;51.574;6.980;2024-03-06T16:28:18;43.47;;;27.53;;
1887;SDS011;944;51.574;6.980;2024-03-06T16:30:51;44.03;;;27.23;;
1887;SDS011;944;51.574;6.980;2024-03-06T16:33:19;43.97;;;27.57;;
1887;SDS011;944;51.574;6.980;2024-03-06T16:35:46;45.27;;;26.60;;
1887;SDS011;944;51.574;6.980;2024-03-06T16:38:17;53.30;;;27.17;;
1887;SDS011;944;51.574;6.980;2024-03-06T16:40:47;45.23;;;27.57;;
1887;SDS011;944;51.574;6.980;2024-03-06T16:43:19;47.47;;;26.80;;
1887;SDS011;944;51.574;6.980;2024-03-06T16:49:09;44.07;;;28.20;;
1887;SDS011;944;51.574;6.980;2024-03-06T16:51:46;39.53;;;26.03;;
1887;SDS011;944;51.574;6.980;2024-03-06T16:57:56;44.33;;;25.23;;
1887;SDS011;944;51.574;6.980;2024-03-06T17:00:30;38.97;;;24.10;;
1887;SDS011;944;51.574;6.980;2024-03-06T17:03:04;41.40;;;25.60;;
1887;SDS011;944;51.574;6.980;2024-03-06T17:05:34;45.13;;;26.40;;
1887;SDS011;944;51.574;6.980;2024-03-06T17:08:06;43.47;;;26.53;;
1887;SDS011;944;51.574;6.980;2024-03-06T17:10:42;44.33;;;27.93;;
1887;SDS011;944;51.574;6.980;2024-03-06T17:16:57;44.63;;;27.63;;
